Portada
METAR-TAF:

METAR-TAF

Aeroports :

Aeroport Internacional Príncep Said Ibrahim

Moroni, Comores

latitud: 11-32S, longitud: 043-16E, altitud: 29 m

Observació

L'informe es va fer fa 18 minuts, a les 14:00 UTC
Vent 7 kt del Est
Temperatura 31°C
Humitat 66%
Pressió 1011 hPa
Visibilitat 10 km o més
Núvols disperses a una alçada de 2000 ft, Cumulus congestus.

METAR: FMCH 071400Z 09007KT 9999 SCT020TCU 31/24 Q1011 NOSIG

Hora: 17:18 (14:18 UTC)

Pronòstic

L'informe es va fer fa 3 hores i 18 minuts, a les 11:00 UTC
Pronòstic vàlid del 07 a les 12 UTC al 08 a les 18 UTC
Vent 10 kt del Oest/Nord-Oest
Visibilitat 10 km o més
Núvols disperses a una alçada de 2000 ft
Núvols disperses a una alçada de 3000 ft
Evolucionant progressivament
l' 07 a les 15 UTC al 07 a les 18 UTC
Vent 3 kt del Est/Nord-Est
Evolucionant progressivament
l' 08 a les 05 UTC al 08 a les 07 UTC
Vent 10 kt del Nord/Nord-Oest

TAF: FMCH 071100Z 0712/0818 30010KT 9999 SCT020 SCT030 BECMG 0715/0718 07003KT BECMG 0805/0807 33010KT

Observacions i pronòstics meteorològics de més de 4000 aeroports (METAR i TAF).

Les estacions disponibles són els punts grocs i vermells al mapa.

Posi el ratolí al punt desitjat per veure el nom de l'estació.

Feu clic per veure les observacions i els pronòstics meteorològics.

Per canviar el mapa: feu clic els botons verds amb una creu de color negre per apropar; al botó verd amb un guió per allunyar la imatge; o en les fletxes verdes per a mapes adjacents.


METAR-TAF: